Nearby METAR Reports

 

KIAD - Wash Dc/Dulles, Virginia, USA
Distance from station: ESE 7mi, 11km
Updated: Sun, 15-Sep-2019 3:10am EDT
Overcast
Overcast
 Wind from calm
Wind: Calm
Temperature: 72°F , 22°C
Dew Point: 68°F , 20°C
Humidity: 88%
Barometer: 30.17 inHg , 1021.7 hPa
Clouds: Overcast
Visibility: 10 miles , 16 km
Cloud details: Overcast 2900 ft
2019/09/15 07:10 KIAD 150710Z 00000KT 10SM OVC029 22/20 A3017 RMK AO2 T02220200 $
KJYO - Leesburg/Godfrey, Virginia, USA
Distance from station: N 7mi, 12km
Updated: Sun, 15-Sep-2019 3:15am EDT
Overcast
Overcast
 Wind from N
Wind: N 3 mph , 6 km/h
Temperature: 64°F , 18°C
Dew Point: 64°F , 18°C
Humidity: 100%
Barometer: 30.19 inHg , 1022.4 hPa
Clouds: Overcast
Visibility: 10 miles , 16 km
Cloud details: Overcast 1900 ft
2019/09/15 07:15 KJYO 150715Z AUTO 35003KT 10SM OVC019 18/18 A3019 RMK AO2
 
KHEF - Manassas Muni, Virginia, USA
Distance from station: S 17mi, 28km
Updated: Sun, 15-Sep-2019 2:56am EDT
Overcast
Overcast
 Wind from calm
Wind: Calm
Temperature: 72°F , 22°C
Dew Point: 70°F , 21°C
Humidity: 94%
Barometer: 30.17 inHg , 1021.7 hPa
Clouds: Overcast
Visibility: 10 miles , 16 km
Cloud details: Overcast 3700 ft
2019/09/15 06:56 KHEF 150656Z AUTO 00000KT 10SM OVC037 22/21 A3017 RMK AO2 SLP219 T02170206
KGAI - Gaithersburg, Maryland, USA
Distance from station: NE 26mi, 41km
Updated: Sun, 15-Sep-2019 2:56am EDT
Overcast
Overcast
 Wind from calm
Wind: Calm
Temperature: 73°F , 23°C
Dew Point: 68°F , 20°C
Humidity: 83%
Barometer: 30.18 inHg , 1022 hPa
Clouds: Overcast
Visibility: 10 miles , 16 km
Cloud details: Overcast 2500 ft
2019/09/15 06:56 KGAI 150656Z AUTO 00000KT 10SM OVC025 23/20 A3018 RMK AO2 SLP228 T02280200
 
KDAA - Fort Belvoir/Dav, Virginia, USA
Distance from station: SE 27mi, 44km
Updated: Sun, 15-Sep-2019 2:56am EDT
Mostly cloudy
Mostly cloudy
 Wind from calm
Wind: Calm
Temperature: 72°F , 22°C
Dew Point: 70°F , 21°C
Humidity: 94%
Barometer: 30.15 inHg , 1021 hPa
Clouds: Mostly cloudy
Visibility: 10 miles , 16 km
Cloud details: Few Clouds 4200 ft
Mostly cloudy 5500 ft
2019/09/15 06:56 KDAA 150656Z AUTO 00000KT 10SM FEW042 BKN055 22/21 A3015 RMK AO2 SLP212 T02160206 $
KHWY - Warrenton, Virginia, USA
Distance from station: SSW 27mi, 44km
Updated: Sun, 15-Sep-2019 3:15am EDT
Overcast
Overcast
 Wind from calm
Wind: Calm
Temperature: 70°F , 21°C
Dew Point: 66°F , 19°C
Humidity: 88%
Barometer: 30.17 inHg , 1021.7 hPa
Clouds: Overcast
Visibility: 10 miles , 16 km
Cloud details: Partly cloudy 3600 ft
Overcast 8500 ft
2019/09/15 07:15 KHWY 150715Z AUTO 00000KT 10SM SCT036 OVC085 21/19 A3017 RMK AO2 T02100192
 
KDCA - Washington/Natl, Washington D.c., USA
Distance from station: ESE 30mi, 48km
Updated: Sun, 15-Sep-2019 2:52am EDT
Overcast
Overcast
 Wind from S
Wind: S 7 mph , 11 km/h
Temperature: 75°F , 24°C
Dew Point: 70°F , 21°C
Humidity: 83%
Barometer: 30.16 inHg , 1021.3 hPa
Clouds: Overcast
Visibility: 10 miles , 16 km
Cloud details: Overcast 4100 ft
2019/09/15 06:52 KDCA 150652Z 19006KT 10SM OVC041 24/21 A3016 RMK AO2 SLP213 T02390211
KFDK - Frederick, Maryland, USA
Distance from station: NNE 33mi, 53km
Updated: Sat, 14-Sep-2019 8:47pm EDT
NOT Current
Rain, Overcast
Rain, Overcast
 Wind from calm
Wind: Calm
Temperature: 75°F , 24°C
Dew Point: 70°F , 21°C
Humidity: 83%
Barometer: 30.18 inHg , 1022 hPa
Summary: Rain
Clouds: Overcast
Visibility: 7 miles , 11 km
Cloud details: Partly cloudy 2700 ft
Mostly cloudy 5000 ft
Overcast 7500 ft
2019/09/15 00:47 KFDK 150047Z 00000KT 7SM RA SCT027 BKN050 OVC075 24/21 A3018
 
KOKV - Winchester Rgnl, Virginia, USA
Distance from station: WNW 33mi, 54km
Updated: Sun, 15-Sep-2019 3:15am EDT
Clear
Clear
 Wind from N
Wind: N 3 mph , 6 km/h
Temperature: 64°F , 18°C
Dew Point: 64°F , 18°C
Humidity: 100%
Barometer: 30.19 inHg , 1022.4 hPa
Clouds: Clear
Visibility: 10 miles , 16 km
2019/09/15 07:15 KOKV 150715Z AUTO 35003KT 10SM CLR 18/18 A3019 RMK AO2
KCJR - Culpeper, Virginia, USA
Distance from station: SSW 34mi, 54km
Updated: Sun, 15-Sep-2019 3:15am EDT
Overcast
Overcast
 Wind from calm
Wind: Calm
Temperature: 70°F , 21°C
Dew Point: 68°F , 20°C
Humidity: 94%
Barometer: 30.17 inHg , 1021.7 hPa
Clouds: Overcast
Visibility: 7 miles , 11 km
Cloud details: Partly cloudy 7500 ft
Overcast 9000 ft
2019/09/15 07:15 KCJR 150715Z AUTO 00000KT 7SM SCT075 OVC090 21/20 A3017 RMK AO2 T02050196
 
KCGS - College Park, Maryland, USA
Distance from station: E 35mi, 56km
Updated: Sun, 15-Sep-2019 3:22am EDT
Overcast
Overcast
 Wind from calm
Wind: Calm
Temperature: 73°F , 23°C
Dew Point: 64°F , 18°C
Humidity: 74%
Barometer: 30.15 inHg , 1021 hPa
Clouds: Overcast
Visibility: 10 miles , 16 km
Cloud details: Partly cloudy 3300 ft
Partly cloudy 4200 ft
Overcast 5500 ft
2019/09/15 07:22 KCGS 150722Z AUTO 00000KT 10SM SCT033 SCT042 OVC055 23/18 A3015 RMK AO1 T02330180
KNYG - Quantico Mcaf, Virginia, USA
Distance from station: SSE 35mi, 57km
Updated: Sun, 15-Sep-2019 2:56am EDT
Overcast
Overcast
 Wind from SW
Wind: SW 5 mph , 7 km/h
Temperature: 73°F , 23°C
Dew Point: 70°F , 21°C
Humidity: 89%
Barometer: 30.16 inHg , 1021.3 hPa
Clouds: Overcast
Visibility: 10 miles , 16 km
Cloud details: Partly cloudy 3600 ft
Overcast 4500 ft
2019/09/15 06:56 KNYG 150656Z AUTO 22004KT 10SM SCT036 OVC045 23/21 A3016 RMK AO2 SLP214 T02330211
 
KFRR - Fort Royal, Virginia, USA
Distance from station: W 37mi, 59km
Updated: Sun, 15-Sep-2019 3:15am EDT
Mostly cloudy
Mostly cloudy
 Wind from calm
Wind: Calm
Temperature: 64°F , 18°C
Dew Point: 64°F , 18°C
Humidity: 100%
Barometer: 30.18 inHg , 1022 hPa
Clouds: Mostly cloudy
Visibility: 7 miles , 11 km
Cloud details: Mostly cloudy 200 ft
2019/09/15 07:15 KFRR 150715Z AUTO 00000KT 7SM BKN002 18/18 A3018 RMK AO1
KMRB - Martinsburg, West Virginia, USA
Distance from station: NW 38mi, 61km
Updated: Sun, 15-Sep-2019 2:53am EDT
Clear
Clear
 Wind from NW
Wind: NW 5 mph , 7 km/h
Temperature: 66°F , 19°C
Dew Point: 64°F , 18°C
Humidity: 94%
Barometer: 30.18 inHg , 1022 hPa
Clouds: Clear
Visibility: 10 miles , 16 km
2019/09/15 06:53 KMRB 150653Z AUTO 32004KT 10SM CLR 19/18 A3018 RMK AO2 SLP215 T01940183
 
KADW - Andrews Afb, Maryland, USA
Distance from station: ESE 39mi, 63km
Updated: Sun, 15-Sep-2019 2:56am EDT
Mostly cloudy
Mostly cloudy
 Wind from S
Wind: S 5 mph , 7 km/h
Temperature: 73°F , 23°C
Dew Point: 70°F , 21°C
Humidity: 89%
Barometer: 30.15 inHg , 1021 hPa
Clouds: Mostly cloudy
Visibility: 10 miles , 16 km
Cloud details: Mostly cloudy 3500 ft
2019/09/15 06:56 KADW 150656Z AUTO 19004KT 10SM BKN035 23/21 A3015 RMK AO2 SLP215 T02290208 $
KRMN - Stafford Regnl, Virginia, USA
Distance from station: S 39mi, 63km
Updated: Sun, 15-Sep-2019 3:15am EDT
Partly cloudy
Partly cloudy
 Wind from calm
Wind: Calm
Temperature: 68°F , 20°C
Dew Point: 68°F , 20°C
Humidity: 100%
Barometer: 30.19 inHg , 1022.4 hPa
Clouds: Partly cloudy
Visibility: 7 miles , 11 km
Cloud details: Partly cloudy 5500 ft
2019/09/15 07:15 KRMN 150715Z AUTO 00000KT 7SM SCT055 20/20 A3019 RMK AO2 T02020202
 
KFME - Fort Meade, Maryland, USA
Distance from station: ENE 44mi, 70km
Updated: Sun, 15-Sep-2019 3:21am EDT
Overcast
Overcast
 Wind from calm
Wind: Calm
Temperature: 70°F , 21°C
Dew Point: 68°F , 20°C
Humidity: 94%
Barometer: 30.18 inHg , 1022 hPa
Clouds: Overcast
Visibility: 10 miles , 16 km
Cloud details: Mostly cloudy 3800 ft
Overcast 5000 ft
2019/09/15 07:21 KFME 150721Z AUTO 00000KT 10SM BKN038 OVC050 21/20 A3018 RMK AO1
KRSP - Nsf Thurmont, Maryland, USA
Distance from station: N 48mi, 77km
Updated: Sat, 18-May-2019 1:54pm EDT
NOT Current

 
2019/05/18 17:54 KRSP 181754Z AUTO VRB04KTLS21/16 A3004 RMK AO2 SLP168 T02110161 10228 20172 $
 
KEZF - Fredericksb/Shan, Virginia, USA
Distance from station: S 48mi, 78km
Updated: Sun, 15-Sep-2019 3:15am EDT
Mostly cloudy
Mostly cloudy
 Wind from calm
Wind: Calm
Temperature: 72°F , 22°C
Dew Point: 72°F , 22°C
Humidity: 100%
Barometer: 30.15 inHg , 1021 hPa
Clouds: Mostly cloudy
Visibility: 10 miles , 16 km
Cloud details: Mostly cloudy 4500 ft
Mostly cloudy 6000 ft
2019/09/15 07:15 KEZF 150715Z AUTO 00000KT 10SM BKN045 BKN060 22/22 A3015 RMK AO2 T02200216
KBWI - Balto/Wash Intl, Maryland, USA
Distance from station: ENE 49mi, 80km
Updated: Sun, 15-Sep-2019 2:54am EDT
Overcast
Overcast
 Wind from SW
Wind: SW 3 mph , 6 km/h
Temperature: 72°F , 22°C
Dew Point: 70°F , 21°C
Humidity: 94%
Barometer: 30.15 inHg , 1021 hPa
Clouds: Overcast
Visibility: 10 miles , 16 km
Cloud details: Few Clouds 3500 ft
Mostly cloudy 4600 ft
Mostly cloudy 9000 ft
Overcast 25000 ft
2019/09/15 06:54 KBWI 150654Z 22003KT 10SM FEW035 BKN046 BKN090 OVC250 22/21 A3015 RMK AO2 SLP208 T02220206